KINS/INS METAR and TAF weather

Enter ICAO airport designator
Station Type Date Time Source
KINS METAR 2021/05/17 22:58 UTC NOAA

KINS 172258Z AUTO 26008G18KT 10SM FEW150 28/M03 A2986 RMK AO2 SLP073 T02761033 $


Station Type Date Time Source
KINS Decoded METAR 2021/05/17 22:58 UTC NOAA

Indian Springs, Indian Springs Auxiliary AFLD Nellis AFB, NV, United States (KINS) 36-35N 115-40W
May 17, 2021 - 06:58 PM EDT / 2021.05.17 2258 UTC
Wind: from the W (260 degrees) at 9 MPH (8 KT) gusting to 21 MPH (18 KT):0
Visibility: 10 mile(s):0
Sky conditions: mostly clear
Temperature: 81.7 F (27.6 C)
Dew Point: 26.1 F (-3.3 C)
Relative Humidity: 12%
Pressure (altimeter): 29.86 in. Hg (1011 hPa)
ob: KINS 172258Z AUTO 26008G18KT 10SM FEW150 28/M03 A2986 RMK AO2 SLP073 T02761033
cycle: 23

Station Type Date Time Source
KINS TAF 2021/05/17 21:59 UTC NOAA

TAF KINS 172056Z 1721/1903 27012G30KT 9999 VCTS SCT120 BKN150CB 520009 QNH2988INS
TEMPO 1800/1802 9000 -SHRA BKN100
BECMG 1803/1804 27012KT 9999 NSW BKN120 QNH2988INS WND 190V270
BECMG 1805/1806 VRB06KT 9999 SCT160 QNH2989INS
BECMG 1808/1809 20009KT 9999 SKC QNH2991INS WND 200V340
BECMG 1820/1821 26012KT 9999 SCT200 QNH2982INS TX28/1721Z TN13/1812Z

Example: see airport list